createdAt,value
2023-05-14T00:00:46.744Z,185.62
2023-05-14T00:01:46.761Z,185.75
2023-05-14T00:02:46.838Z,184.94
2023-05-14T00:03:46.779Z,187.37
2023-05-14T00:04:46.727Z,186.05
2023-05-14T00:05:46.735Z,185.17
2023-05-14T00:06:46.738Z,186.60
2023-05-14T00:07:47.517Z,187.80
2023-05-14T00:08:47.481Z,186.25
2023-05-14T00:09:46.720Z,188.12
2023-05-14T00:10:46.689Z,184.03
2023-05-14T00:11:46.674Z,184.97
2023-05-14T00:12:46.685Z,184.15
2023-05-14T00:13:47.516Z,185.05
2023-05-14T00:14:46.694Z,184.19
2023-05-14T00:15:46.695Z,186.21
2023-05-14T00:16:46.641Z,187.76
2023-05-14T00:17:46.695Z,184.01
2023-05-14T00:18:46.658Z,184.16
2023-05-14T00:19:47.642Z,184.48
2023-05-14T00:20:46.637Z,184.94
2023-05-14T00:21:46.648Z,184.65
2023-05-14T00:22:46.601Z,186.29
2023-05-14T00:23:46.607Z,184.09
2023-05-14T00:24:46.612Z,185.10
2023-05-14T00:25:46.564Z,183.42
2023-05-14T00:26:46.597Z,183.78
2023-05-14T00:27:46.593Z,185.30
2023-05-14T00:28:46.555Z,185.67
2023-05-14T00:29:47.017Z,183.47
2023-05-14T00:30:46.553Z,184.11
2023-05-14T00:31:46.685Z,183.73
2023-05-14T00:32:46.613Z,183.74
2023-05-14T00:33:46.517Z,184.46
2023-05-14T00:34:46.528Z,182.62
2023-05-14T00:35:46.538Z,182.24
2023-05-14T00:36:46.502Z,180.77
2023-05-14T00:37:47.534Z,181.87
2023-05-14T00:38:46.511Z,183.96
2023-05-14T00:39:46.518Z,182.10
2023-05-14T00:40:46.530Z,181.06
2023-05-14T00:41:46.484Z,181.70
2023-05-14T00:42:47.503Z,181.85
2023-05-14T00:43:46.492Z,183.11
2023-05-14T00:44:46.476Z,182.42
2023-05-14T00:45:46.461Z,181.20
2023-05-14T00:46:47.055Z,179.85
2023-05-14T00:47:46.516Z,181.03
2023-05-14T00:48:46.487Z,183.38
2023-05-14T00:49:46.533Z,180.84
2023-05-14T00:50:48.111Z,179.68
2023-05-14T00:51:46.446Z,180.58
2023-05-14T00:52:48.012Z,180.89
2023-05-14T00:53:46.408Z,180.72
2023-05-14T00:54:46.529Z,181.48
2023-05-14T00:55:46.404Z,181.46
2023-05-14T00:56:46.411Z,181.90
2023-05-14T00:57:46.432Z,182.72
2023-05-14T00:58:46.403Z,182.66
2023-05-14T00:59:46.406Z,180.23
2023-05-14T01:00:46.409Z,182.61
2023-05-14T01:01:46.363Z,182.18
2023-05-14T01:02:46.416Z,179.64
2023-05-14T01:03:46.465Z,178.88
2023-05-14T01:04:46.361Z,179.81
2023-05-14T01:05:46.307Z,181.05
2023-05-14T01:06:46.304Z,181.69
2023-05-14T01:07:46.386Z,181.55
2023-05-14T01:08:46.303Z,178.53
2023-05-14T01:09:46.540Z,178.62
2023-05-14T01:10:46.329Z,177.62
2023-05-14T01:11:46.331Z,180.06
2023-05-14T01:12:46.339Z,177.45
2023-05-14T01:13:46.364Z,177.52
2023-05-14T01:14:46.555Z,176.58
2023-05-14T01:15:46.375Z,177.75
2023-05-14T01:16:46.437Z,177.97
2023-05-14T01:17:46.405Z,177.77
2023-05-14T01:18:46.445Z,177.71
2023-05-14T01:19:46.440Z,178.20
2023-05-14T01:20:46.444Z,176.36
2023-05-14T01:21:46.422Z,177.93
2023-05-14T01:22:46.460Z,178.21
2023-05-14T01:23:46.467Z,176.18
2023-05-14T01:24:46.485Z,178.11
2023-05-14T01:25:46.484Z,176.47
2023-05-14T01:26:46.512Z,177.11
2023-05-14T01:27:46.548Z,178.73
2023-05-14T01:28:46.522Z,174.62
2023-05-14T01:29:46.508Z,177.23
2023-05-14T01:30:46.557Z,176.97
2023-05-14T01:31:46.667Z,176.10
2023-05-14T01:32:46.629Z,177.00
2023-05-14T01:33:46.596Z,179.61
2023-05-14T01:34:46.596Z,176.86
2023-05-14T01:35:46.633Z,178.54
2023-05-14T01:36:46.618Z,175.84
2023-05-14T01:37:46.634Z,177.65
2023-05-14T01:38:46.651Z,180.00
2023-05-14T01:39:46.653Z,178.57
2023-05-14T01:40:47.058Z,177.22
2023-05-14T01:41:46.691Z,176.67
2023-05-14T01:42:46.744Z,177.70
2023-05-14T01:43:46.786Z,174.73
2023-05-14T01:44:46.765Z,177.67
2023-05-14T01:45:46.833Z,178.95
2023-05-14T01:46:46.770Z,176.35
2023-05-14T01:47:46.828Z,177.90
2023-05-14T01:48:46.853Z,178.24
2023-05-14T01:49:46.884Z,174.78
2023-05-14T01:50:46.875Z,179.62
2023-05-14T01:51:46.859Z,176.17
2023-05-14T01:52:46.832Z,176.39
2023-05-14T01:53:46.852Z,176.98
2023-05-14T01:54:46.845Z,177.37
2023-05-14T01:55:47.065Z,175.85
2023-05-14T01:56:46.812Z,180.79
2023-05-14T01:57:46.803Z,177.70
2023-05-14T01:58:47.524Z,174.45
2023-05-14T01:59:46.782Z,177.05
2023-05-14T02:00:46.796Z,176.24
2023-05-14T02:01:46.839Z,176.07
2023-05-14T02:02:46.825Z,176.30
2023-05-14T02:03:46.829Z,178.74
2023-05-14T02:04:46.755Z,177.73
2023-05-14T02:05:47.064Z,177.42
2023-05-14T02:06:46.745Z,173.76
2023-05-14T02:07:46.786Z,179.39
2023-05-14T02:08:46.734Z,176.16
2023-05-14T02:09:46.713Z,175.62
2023-05-14T02:10:47.031Z,175.58
2023-05-14T02:11:46.702Z,176.98
2023-05-14T02:12:46.715Z,176.02
2023-05-14T02:13:46.716Z,176.47
2023-05-14T02:14:46.726Z,175.17
2023-05-14T02:15:47.142Z,175.84
2023-05-14T02:16:47.503Z,175.63
2023-05-14T02:17:46.757Z,175.98
2023-05-14T02:18:46.779Z,176.29
2023-05-14T02:19:46.751Z,177.30
2023-05-14T02:20:46.758Z,173.82
2023-05-14T02:21:46.790Z,175.79
2023-05-14T02:22:46.784Z,173.22
2023-05-14T02:23:46.831Z,176.76
2023-05-14T02:24:46.871Z,176.42
2023-05-14T02:25:47.032Z,178.35
2023-05-14T02:26:46.896Z,174.53
2023-05-14T02:27:46.878Z,174.90
2023-05-14T02:28:46.933Z,173.34
2023-05-14T02:29:47.563Z,174.27
2023-05-14T02:30:47.041Z,175.42
2023-05-14T02:31:47.018Z,178.17
2023-05-14T02:32:47.020Z,175.57
2023-05-14T02:33:46.986Z,177.15
2023-05-14T02:34:47.012Z,175.51
2023-05-14T02:35:47.075Z,175.66
2023-05-14T02:36:47.039Z,173.50
2023-05-14T02:37:47.071Z,172.63
2023-05-14T02:38:47.072Z,173.46
2023-05-14T02:39:47.072Z,175.13
2023-05-14T02:40:47.109Z,175.38
2023-05-14T02:41:47.188Z,172.32
2023-05-14T02:42:47.163Z,176.75
2023-05-14T02:43:48.222Z,175.36
2023-05-14T02:44:47.177Z,174.43
2023-05-14T02:45:47.557Z,173.61
2023-05-14T02:46:47.273Z,175.45
2023-05-14T02:47:47.301Z,174.01
2023-05-14T02:48:47.268Z,174.53
2023-05-14T02:49:47.275Z,176.47
2023-05-14T02:50:47.388Z,174.39
2023-05-14T02:51:47.283Z,174.32
2023-05-14T02:52:47.309Z,175.84
2023-05-14T02:53:49.087Z,173.71
2023-05-14T02:54:47.307Z,174.09
2023-05-14T02:55:49.060Z,174.29
2023-05-14T02:56:47.330Z,175.51
2023-05-14T02:57:47.301Z,176.84
2023-05-14T02:58:47.301Z,174.45
2023-05-14T02:59:47.278Z,176.13
2023-05-14T03:00:47.260Z,176.78
2023-05-14T03:01:47.315Z,174.61
2023-05-14T03:02:47.279Z,173.00
2023-05-14T03:03:47.257Z,174.97
2023-05-14T03:04:47.244Z,177.00
2023-05-14T03:05:47.224Z,172.58
2023-05-14T03:06:47.208Z,174.05
2023-05-14T03:07:47.205Z,174.47
2023-05-14T03:08:47.211Z,176.64
2023-05-14T03:09:47.221Z,172.20
2023-05-14T03:10:47.206Z,174.89
2023-05-14T03:11:47.200Z,176.25
2023-05-14T03:12:47.160Z,175.82
2023-05-14T03:13:47.167Z,173.53
2023-05-14T03:14:47.176Z,175.72
2023-05-14T03:15:47.158Z,173.57
2023-05-14T03:16:47.260Z,175.04
2023-05-14T03:17:47.207Z,172.28
2023-05-14T03:18:47.259Z,171.55
2023-05-14T03:19:47.148Z,172.58
2023-05-14T03:20:47.120Z,171.71
2023-05-14T03:21:47.123Z,174.35
2023-05-14T03:22:47.121Z,177.61
2023-05-14T03:23:47.111Z,174.29
2023-05-14T03:24:47.116Z,172.40
2023-05-14T03:25:47.598Z,173.55
2023-05-14T03:26:47.097Z,173.46
2023-05-14T03:27:47.144Z,176.74
2023-05-14T03:28:47.113Z,172.62
2023-05-14T03:29:47.162Z,170.83
2023-05-14T03:30:47.608Z,172.42
2023-05-14T03:31:47.142Z,172.89
2023-05-14T03:32:47.191Z,172.72
2023-05-14T03:33:47.134Z,173.07
2023-05-14T03:34:47.178Z,174.80
2023-05-14T03:35:47.210Z,171.55
2023-05-14T03:36:47.203Z,173.50
2023-05-14T03:37:47.200Z,174.29
2023-05-14T03:38:47.250Z,170.93
2023-05-14T03:39:47.250Z,172.05
2023-05-14T03:40:47.289Z,173.25
2023-05-14T03:41:47.276Z,173.61
2023-05-14T03:42:47.242Z,171.07
2023-05-14T03:43:47.250Z,172.59
2023-05-14T03:44:47.254Z,172.72
2023-05-14T03:45:47.294Z,172.91
2023-05-14T03:46:47.324Z,173.40
2023-05-14T03:47:47.370Z,174.22
2023-05-14T03:48:47.386Z,170.67
2023-05-14T03:49:47.323Z,175.38
2023-05-14T03:50:47.365Z,172.47
2023-05-14T03:51:47.369Z,172.22
2023-05-14T03:52:47.421Z,173.85
2023-05-14T03:53:47.427Z,174.54
2023-05-14T03:54:47.438Z,176.33
2023-05-14T03:55:47.618Z,174.04
2023-05-14T03:56:47.467Z,173.86
2023-05-14T03:57:47.469Z,175.38
2023-05-14T03:58:47.505Z,175.23
2023-05-14T03:59:47.533Z,176.21
2023-05-14T04:00:47.515Z,174.37
2023-05-14T04:01:47.570Z,174.56
2023-05-14T04:02:47.541Z,174.17
2023-05-14T04:03:47.715Z,174.25
2023-05-14T04:04:47.671Z,177.27
2023-05-14T04:05:48.120Z,175.37
2023-05-14T04:06:47.580Z,174.72
2023-05-14T04:07:47.588Z,174.91
2023-05-14T04:08:47.627Z,174.03
2023-05-14T04:09:47.638Z,172.99
2023-05-14T04:10:47.676Z,173.74
2023-05-14T04:11:47.667Z,171.73
2023-05-14T04:12:47.655Z,175.71
2023-05-14T04:13:47.682Z,176.07
2023-05-14T04:14:47.674Z,171.61
2023-05-14T04:15:47.734Z,173.83
2023-05-14T04:16:47.718Z,176.05
2023-05-14T04:17:47.719Z,174.29
2023-05-14T04:18:47.776Z,175.45
2023-05-14T04:19:47.672Z,178.44
2023-05-14T04:20:47.711Z,174.86
2023-05-14T04:21:47.719Z,174.82
2023-05-14T04:22:47.733Z,173.29
2023-05-14T04:23:47.771Z,170.18
2023-05-14T04:24:47.777Z,172.47
2023-05-14T04:25:47.752Z,173.52
2023-05-14T04:26:47.760Z,173.12
2023-05-14T04:27:47.763Z,171.71
2023-05-14T04:28:47.774Z,173.56
2023-05-14T04:29:47.777Z,174.71
2023-05-14T04:30:48.092Z,172.20
2023-05-14T04:31:47.878Z,176.22
2023-05-14T04:32:47.896Z,172.50
2023-05-14T04:33:47.819Z,173.25
2023-05-14T04:34:47.887Z,172.54
2023-05-14T04:35:47.858Z,175.20
2023-05-14T04:36:47.854Z,171.46
2023-05-14T04:37:47.883Z,171.14
2023-05-14T04:38:47.883Z,169.76
2023-05-14T04:39:47.863Z,172.48
2023-05-14T04:40:48.086Z,172.77
2023-05-14T04:41:47.906Z,173.74
2023-05-14T04:42:48.596Z,173.45
2023-05-14T04:43:47.919Z,171.66
2023-05-14T04:44:47.882Z,174.08
2023-05-14T04:45:47.915Z,172.68
2023-05-14T04:46:47.930Z,170.39
2023-05-14T04:47:47.956Z,169.32
2023-05-14T04:48:47.927Z,170.36
2023-05-14T04:49:47.927Z,173.31
2023-05-14T04:50:47.930Z,167.17
2023-05-14T04:51:48.103Z,170.86
2023-05-14T04:52:47.956Z,174.78
2023-05-14T04:53:47.915Z,169.04
2023-05-14T04:54:48.005Z,171.41
2023-05-14T04:55:47.928Z,170.68
2023-05-14T04:56:48.102Z,170.92
2023-05-14T04:57:47.935Z,167.98
2023-05-14T04:58:47.986Z,170.70
2023-05-14T04:59:47.994Z,167.79
2023-05-14T05:00:48.008Z,169.29
2023-05-14T05:01:48.049Z,169.30
2023-05-14T05:02:48.059Z,170.59
2023-05-14T05:03:47.996Z,172.80
2023-05-14T05:04:47.993Z,169.36
2023-05-14T05:05:48.002Z,169.42
2023-05-14T05:06:48.101Z,170.48
2023-05-14T05:07:48.007Z,167.85
2023-05-14T05:08:48.028Z,167.65
2023-05-14T05:09:48.042Z,169.60
2023-05-14T05:10:48.077Z,171.32
2023-05-14T05:11:48.084Z,171.15
2023-05-14T05:12:48.105Z,168.70
2023-05-14T05:13:48.103Z,165.11
2023-05-14T05:14:48.149Z,168.13
2023-05-14T05:15:48.138Z,168.02
2023-05-14T05:16:48.129Z,167.81
2023-05-14T05:17:48.237Z,171.98
2023-05-14T05:18:48.192Z,169.55
2023-05-14T05:19:48.158Z,168.75
2023-05-14T05:20:48.149Z,168.54
2023-05-14T05:21:48.155Z,166.77
2023-05-14T05:22:48.186Z,169.46
2023-05-14T05:23:48.205Z,167.62
2023-05-14T05:24:49.934Z,166.15
2023-05-14T05:25:48.182Z,166.59
2023-05-14T05:26:48.600Z,169.25
2023-05-14T05:27:48.231Z,166.08
2023-05-14T05:28:48.215Z,168.66
2023-05-14T05:29:48.212Z,169.98
2023-05-14T05:30:48.210Z,169.37
2023-05-14T05:31:48.712Z,170.65
2023-05-14T05:32:48.289Z,167.15
2023-05-14T05:33:48.254Z,168.00
2023-05-14T05:34:48.248Z,166.69
2023-05-14T05:35:48.293Z,169.63
2023-05-14T05:36:48.641Z,164.32
2023-05-14T05:37:48.274Z,169.22
2023-05-14T05:38:48.281Z,167.18
2023-05-14T05:39:48.315Z,166.91
2023-05-14T05:40:48.340Z,163.97
2023-05-14T05:41:48.649Z,163.67
2023-05-14T05:42:48.303Z,168.11
2023-05-14T05:43:48.319Z,164.57
2023-05-14T05:44:48.307Z,166.08
2023-05-14T05:45:48.328Z,165.95
2023-05-14T05:46:48.657Z,164.99
2023-05-14T05:47:48.388Z,165.84
2023-05-14T05:48:48.345Z,165.35
2023-05-14T05:49:48.314Z,164.16
2023-05-14T05:50:48.319Z,165.95
2023-05-14T05:51:48.626Z,164.60
2023-05-14T05:52:48.338Z,164.25
2023-05-14T05:53:48.338Z,165.79
2023-05-14T05:54:48.325Z,168.60
2023-05-14T05:55:48.306Z,164.95
2023-05-14T05:56:48.337Z,167.20
2023-05-14T05:57:48.324Z,162.81
2023-05-14T05:58:48.356Z,168.61
2023-05-14T05:59:48.388Z,167.46
2023-05-14T06:00:48.392Z,167.88
2023-05-14T06:01:48.662Z,166.16
2023-05-14T06:02:48.383Z,165.65
2023-05-14T06:03:48.938Z,164.68
2023-05-14T06:04:48.416Z,163.51
2023-05-14T06:05:48.485Z,165.29
2023-05-14T06:06:48.435Z,165.61
2023-05-14T06:07:48.442Z,166.56
2023-05-14T06:08:48.457Z,168.00
2023-05-14T06:09:48.470Z,166.86
2023-05-14T06:10:48.466Z,169.71
2023-05-14T06:11:49.160Z,168.57
2023-05-14T06:12:48.527Z,164.63
2023-05-14T06:13:48.528Z,168.98
2023-05-14T06:14:48.490Z,163.85
2023-05-14T06:15:48.533Z,163.49
2023-05-14T06:16:48.560Z,165.14
2023-05-14T06:17:48.595Z,164.48
2023-05-14T06:18:48.643Z,166.62
2023-05-14T06:19:48.615Z,166.67
2023-05-14T06:20:48.643Z,164.78
2023-05-14T06:21:48.671Z,163.07
2023-05-14T06:22:48.686Z,164.98
2023-05-14T06:23:48.691Z,165.60
2023-05-14T06:24:48.686Z,166.15
2023-05-14T06:25:50.591Z,166.05
2023-05-14T06:26:48.762Z,165.49
2023-05-14T06:27:48.722Z,164.20
2023-05-14T06:28:48.684Z,164.23
2023-05-14T06:29:48.701Z,165.27
2023-05-14T06:30:48.846Z,164.80
2023-05-14T06:31:48.790Z,164.48
2023-05-14T06:32:48.787Z,165.10
2023-05-14T06:33:48.768Z,166.67
2023-05-14T06:34:48.779Z,165.69
2023-05-14T06:35:48.773Z,165.53
2023-05-14T06:36:48.781Z,164.74
2023-05-14T06:37:48.786Z,167.33
2023-05-14T06:38:48.844Z,164.60
2023-05-14T06:39:48.840Z,163.97
2023-05-14T06:40:48.837Z,164.62
2023-05-14T06:41:48.888Z,167.71
2023-05-14T06:42:48.855Z,166.66
2023-05-14T06:43:48.866Z,166.13
2023-05-14T06:44:48.916Z,165.92
2023-05-14T06:45:48.954Z,167.79
2023-05-14T06:46:48.916Z,166.58
2023-05-14T06:47:48.959Z,166.38
2023-05-14T06:48:48.973Z,167.88
2023-05-14T06:49:48.971Z,165.65
2023-05-14T06:50:49.000Z,166.68
2023-05-14T06:51:48.999Z,166.75
2023-05-14T06:52:48.994Z,166.81
2023-05-14T06:53:49.033Z,165.61
2023-05-14T06:54:49.026Z,164.05
2023-05-14T06:55:49.060Z,167.64
2023-05-14T06:56:49.057Z,166.96
2023-05-14T06:57:49.100Z,164.74
2023-05-14T06:58:49.070Z,166.78
2023-05-14T06:59:49.088Z,163.29
2023-05-14T07:00:49.090Z,169.54
2023-05-14T07:01:49.195Z,165.81
2023-05-14T07:02:49.167Z,165.43
2023-05-14T07:03:49.195Z,164.99
2023-05-14T07:04:49.165Z,164.26
2023-05-14T07:05:49.192Z,165.06
2023-05-14T07:06:49.179Z,164.68
2023-05-14T07:07:49.195Z,166.38
2023-05-14T07:08:49.174Z,165.00
2023-05-14T07:09:49.238Z,165.53
2023-05-14T07:10:49.233Z,162.97
2023-05-14T07:11:49.248Z,165.39
2023-05-14T07:12:49.245Z,164.29
2023-05-14T07:13:49.243Z,164.29
2023-05-14T07:14:49.293Z,165.17
2023-05-14T07:15:49.338Z,165.46
2023-05-14T07:16:49.407Z,164.58
2023-05-14T07:17:49.373Z,165.20
2023-05-14T07:18:49.352Z,165.60
2023-05-14T07:19:49.355Z,167.28
2023-05-14T07:20:49.360Z,163.65
2023-05-14T07:21:49.383Z,163.28
2023-05-14T07:22:49.377Z,163.73
2023-05-14T07:23:49.392Z,163.39
2023-05-14T07:24:49.483Z,164.40
2023-05-14T07:25:49.432Z,164.12
2023-05-14T07:26:49.412Z,163.79
2023-05-14T07:27:49.447Z,165.58
2023-05-14T07:28:49.461Z,164.71
2023-05-14T07:29:49.456Z,165.43
2023-05-14T07:30:49.493Z,170.16
2023-05-14T07:31:49.732Z,166.69
2023-05-14T07:32:49.555Z,165.36
2023-05-14T07:33:49.529Z,167.81
2023-05-14T07:34:49.532Z,164.27
2023-05-14T07:35:49.542Z,167.54
2023-05-14T07:36:49.588Z,164.82
2023-05-14T07:37:49.605Z,165.61
2023-05-14T07:38:49.588Z,166.31
2023-05-14T07:39:49.609Z,166.48
2023-05-14T07:40:49.646Z,166.61
2023-05-14T07:41:49.613Z,163.91
2023-05-14T07:42:49.654Z,165.11
2023-05-14T07:43:49.630Z,161.20
2023-05-14T07:44:49.675Z,161.68
2023-05-14T07:45:49.673Z,166.86
2023-05-14T07:46:49.723Z,167.57
2023-05-14T07:47:49.688Z,164.67
2023-05-14T07:48:49.633Z,165.62
2023-05-14T07:49:49.628Z,166.31
2023-05-14T07:50:49.649Z,167.96
2023-05-14T07:51:49.625Z,167.20
2023-05-14T07:52:49.624Z,165.59
2023-05-14T07:53:49.638Z,167.25
2023-05-14T07:54:50.769Z,165.64
2023-05-14T07:55:49.651Z,165.84
2023-05-14T07:56:49.674Z,164.96
2023-05-14T07:57:49.637Z,165.57
2023-05-14T07:58:49.639Z,164.56
2023-05-14T07:59:49.637Z,165.40
2023-05-14T08:00:49.665Z,164.67
2023-05-14T08:01:49.676Z,164.62
2023-05-14T08:02:49.783Z,164.26
2023-05-14T08:03:49.792Z,166.34
2023-05-14T08:04:49.721Z,165.40
2023-05-14T08:05:50.674Z,162.83
2023-05-14T08:06:49.725Z,164.78
2023-05-14T08:07:49.699Z,164.81
2023-05-14T08:08:49.731Z,165.69
2023-05-14T08:09:49.756Z,165.13
2023-05-14T08:10:49.826Z,166.25
2023-05-14T08:11:49.836Z,166.57
2023-05-14T08:12:49.846Z,167.17
2023-05-14T08:13:49.822Z,166.44
2023-05-14T08:14:49.828Z,168.23
2023-05-14T08:15:49.827Z,165.64
2023-05-14T08:16:49.907Z,165.00
2023-05-14T08:17:49.949Z,166.69
2023-05-14T08:18:49.911Z,165.59
2023-05-14T08:19:49.959Z,166.92
2023-05-14T08:20:49.932Z,167.07
2023-05-14T08:21:49.970Z,166.13
2023-05-14T08:22:50.004Z,164.65
2023-05-14T08:23:50.027Z,170.57
2023-05-14T08:24:50.076Z,167.50
2023-05-14T08:25:50.121Z,167.51
2023-05-14T08:26:50.201Z,169.19
2023-05-14T08:27:50.199Z,167.30
2023-05-14T08:28:50.222Z,169.09
2023-05-14T08:29:50.278Z,168.56
2023-05-14T08:30:50.400Z,170.92
2023-05-14T08:31:50.391Z,169.95
2023-05-14T08:32:50.403Z,168.93
2023-05-14T08:33:50.495Z,171.18
2023-05-14T08:34:50.561Z,167.47
2023-05-14T08:35:50.619Z,167.66
2023-05-14T08:36:50.662Z,170.03
2023-05-14T08:37:50.744Z,169.95
2023-05-14T08:38:50.773Z,172.33
2023-05-14T08:39:50.892Z,173.54
2023-05-14T08:40:50.886Z,169.92
2023-05-14T08:41:51.196Z,172.90
2023-05-14T08:42:51.010Z,169.30
2023-05-14T08:43:51.068Z,168.10
2023-05-14T08:44:51.135Z,170.58
2023-05-14T08:45:51.142Z,174.44
2023-05-14T08:46:51.222Z,171.16
2023-05-14T08:47:51.514Z,171.49
2023-05-14T08:48:51.306Z,171.50
2023-05-14T08:49:51.338Z,173.10
2023-05-14T08:50:51.405Z,174.02
2023-05-14T08:51:51.412Z,173.53
2023-05-14T08:52:51.520Z,172.16
2023-05-14T08:53:51.515Z,171.93
2023-05-14T08:54:51.550Z,171.46
2023-05-14T08:55:51.607Z,172.90
2023-05-14T08:56:51.995Z,172.46
2023-05-14T08:57:51.704Z,171.20
2023-05-14T08:58:51.753Z,169.10
2023-05-14T08:59:51.751Z,171.19
2023-05-14T09:00:51.784Z,172.35
2023-05-14T09:01:51.877Z,169.36
2023-05-14T09:02:51.943Z,166.81
2023-05-14T09:03:51.929Z,169.23
2023-05-14T09:04:51.991Z,168.18
2023-05-14T09:05:51.980Z,170.48
2023-05-14T09:06:52.067Z,170.52
2023-05-14T09:07:52.078Z,170.51
2023-05-14T09:08:52.106Z,171.71
2023-05-14T09:09:52.175Z,171.34
2023-05-14T09:10:52.191Z,169.58
2023-05-14T09:11:52.203Z,169.38
2023-05-14T09:12:52.242Z,167.42
2023-05-14T09:13:52.256Z,166.21
2023-05-14T09:14:52.337Z,165.51
2023-05-14T09:15:52.389Z,158.38
2023-05-14T09:16:52.538Z,159.71
2023-05-14T09:17:52.464Z,154.18
2023-05-14T09:18:52.522Z,150.58
2023-05-14T09:19:52.493Z,140.91
2023-05-14T09:20:52.591Z,149.46
2023-05-14T09:21:52.615Z,150.78
2023-05-14T09:22:52.652Z,154.72
2023-05-14T09:23:52.703Z,144.94
2023-05-14T09:24:52.745Z,139.02
2023-05-14T09:25:52.787Z,143.70
2023-05-14T09:26:52.863Z,154.60
2023-05-14T09:27:52.913Z,152.80
2023-05-14T09:28:52.970Z,149.82
2023-05-14T09:29:52.970Z,150.81
2023-05-14T09:30:53.044Z,149.96
2023-05-14T09:31:53.255Z,152.31
2023-05-14T09:32:53.154Z,156.63
2023-05-14T09:33:53.182Z,154.82
2023-05-14T09:34:53.258Z,157.87
2023-05-14T09:35:53.257Z,151.57
2023-05-14T09:36:53.727Z,145.68
2023-05-14T09:37:53.368Z,148.62
2023-05-14T09:38:53.387Z,152.07
2023-05-14T09:39:53.459Z,155.67
2023-05-14T09:40:53.481Z,150.89
2023-05-14T09:41:53.558Z,150.41
2023-05-14T09:42:53.733Z,154.78
2023-05-14T09:43:53.668Z,158.05
2023-05-14T09:44:53.692Z,151.76
2023-05-14T09:45:53.721Z,154.82
2023-05-14T09:46:53.886Z,157.13
2023-05-14T09:47:53.898Z,158.27
2023-05-14T09:48:53.864Z,158.31
2023-05-14T09:49:53.934Z,153.65
2023-05-14T09:50:53.971Z,154.45
2023-05-14T09:51:54.027Z,156.46
2023-05-14T09:52:54.113Z,153.98
2023-05-14T09:53:54.140Z,156.95
2023-05-14T09:54:54.178Z,161.36
2023-05-14T09:55:54.224Z,155.66
2023-05-14T09:56:55.745Z,152.43
2023-05-14T09:57:54.313Z,156.25
2023-05-14T09:58:54.407Z,159.37
2023-05-14T09:59:54.468Z,161.74
2023-05-14T10:00:54.504Z,161.57
2023-05-14T10:01:54.529Z,160.67
2023-05-14T10:02:54.669Z,160.74
2023-05-14T10:03:54.709Z,158.96
2023-05-14T10:04:54.763Z,160.08
2023-05-14T10:05:54.733Z,155.94
2023-05-14T10:06:54.800Z,155.61
2023-05-14T10:07:55.232Z,157.30
2023-05-14T10:08:54.926Z,156.45
2023-05-14T10:09:55.896Z,157.24
2023-05-14T10:10:55.002Z,156.92
2023-05-14T10:11:55.044Z,159.60
2023-05-14T10:12:55.133Z,159.12
2023-05-14T10:13:55.154Z,160.51
2023-05-14T10:14:55.212Z,159.23
2023-05-14T10:15:55.254Z,161.55
2023-05-14T10:16:55.345Z,162.26
2023-05-14T10:17:55.396Z,156.61
2023-05-14T10:18:57.273Z,158.56
2023-05-14T10:19:55.473Z,159.70
2023-05-14T10:20:55.533Z,160.26
2023-05-14T10:21:55.565Z,157.50
2023-05-14T10:22:55.650Z,160.33
2023-05-14T10:23:55.648Z,159.45
2023-05-14T10:24:55.726Z,161.74
2023-05-14T10:25:55.770Z,157.50
2023-05-14T10:26:55.788Z,160.04
2023-05-14T10:27:55.900Z,156.61
2023-05-14T10:28:55.892Z,160.76
2023-05-14T10:29:55.957Z,157.47
2023-05-14T10:30:56.053Z,154.51
2023-05-14T10:31:56.033Z,157.55
2023-05-14T10:32:56.333Z,156.61
2023-05-14T10:33:58.026Z,155.11
2023-05-14T10:34:56.169Z,162.49
2023-05-14T10:35:56.135Z,157.78
2023-05-14T10:36:56.127Z,155.47
2023-05-14T10:37:56.220Z,155.48
2023-05-14T10:38:56.094Z,157.75
2023-05-14T10:39:56.124Z,156.15
2023-05-14T10:40:56.111Z,157.04
2023-05-14T10:41:56.070Z,156.41
2023-05-14T10:42:56.099Z,154.62
2023-05-14T10:43:56.058Z,157.04
2023-05-14T10:44:56.072Z,156.73
2023-05-14T10:45:56.067Z,157.91
2023-05-14T10:46:56.204Z,153.70
2023-05-14T10:47:56.097Z,153.64
2023-05-14T10:48:56.047Z,150.31
2023-05-14T10:49:56.044Z,154.83
2023-05-14T10:50:56.085Z,155.75
2023-05-14T10:51:56.010Z,152.12
2023-05-14T10:52:56.267Z,153.71
2023-05-14T10:53:56.031Z,151.71
2023-05-14T10:54:56.028Z,148.88
2023-05-14T10:55:56.019Z,152.78
2023-05-14T10:56:55.976Z,155.77
2023-05-14T10:57:55.976Z,151.93
2023-05-14T10:58:55.970Z,152.84
2023-05-14T10:59:55.974Z,153.88
2023-05-14T11:00:55.922Z,152.56
2023-05-14T11:01:55.938Z,154.94
2023-05-14T11:02:56.125Z,154.09
2023-05-14T11:03:56.021Z,154.90
2023-05-14T11:04:55.948Z,152.52
2023-05-14T11:05:55.944Z,148.93
2023-05-14T11:06:55.915Z,148.98
2023-05-14T11:07:56.243Z,148.57
2023-05-14T11:08:55.965Z,152.19
2023-05-14T11:09:56.078Z,142.67
2023-05-14T11:10:56.153Z,148.55
2023-05-14T11:11:56.126Z,150.54
2023-05-14T11:12:56.212Z,146.33
2023-05-14T11:13:56.303Z,146.13
2023-05-14T11:14:56.311Z,144.02
2023-05-14T11:15:56.415Z,145.80
2023-05-14T11:16:56.451Z,144.22
2023-05-14T11:17:56.831Z,144.79
2023-05-14T11:18:56.523Z,147.67
2023-05-14T11:19:56.558Z,151.19
2023-05-14T11:20:56.575Z,144.50
2023-05-14T11:21:56.629Z,146.09
2023-05-14T11:22:56.735Z,153.18
2023-05-14T11:23:56.754Z,150.64
2023-05-14T11:24:56.817Z,145.74
2023-05-14T11:25:56.896Z,146.92
2023-05-14T11:26:56.914Z,147.62
2023-05-14T11:27:56.997Z,145.18
2023-05-14T11:28:57.010Z,143.22
2023-05-14T11:29:57.050Z,152.96
2023-05-14T11:30:57.138Z,155.37
2023-05-14T11:31:57.208Z,147.77
2023-05-14T11:32:58.307Z,147.89
2023-05-14T11:33:57.230Z,149.32
2023-05-14T11:34:57.231Z,146.40
2023-05-14T11:35:57.184Z,150.84
2023-05-14T11:36:57.179Z,150.60
2023-05-14T11:37:57.199Z,148.75
2023-05-14T11:38:57.195Z,146.69
2023-05-14T11:39:57.174Z,140.49
2023-05-14T11:40:57.174Z,140.08
2023-05-14T11:41:57.188Z,144.81
2023-05-14T11:42:57.184Z,145.84
2023-05-14T11:43:57.202Z,145.59
2023-05-14T11:44:57.151Z,145.13
2023-05-14T11:45:57.166Z,147.86
2023-05-14T11:46:57.131Z,145.90
2023-05-14T11:47:57.164Z,145.52
2023-05-14T11:48:57.127Z,145.97
2023-05-14T11:49:57.145Z,147.48
2023-05-14T11:50:57.149Z,147.58
2023-05-14T11:51:57.102Z,152.46
2023-05-14T11:52:57.110Z,148.81
2023-05-14T11:53:57.117Z,149.88
2023-05-14T11:54:57.064Z,150.52
2023-05-14T11:55:57.085Z,152.75
2023-05-14T11:56:57.098Z,150.83
2023-05-14T11:57:57.088Z,153.82
2023-05-14T11:58:57.063Z,153.53
2023-05-14T11:59:57.029Z,155.16
2023-05-14T12:00:57.070Z,155.53
2023-05-14T12:01:57.037Z,154.66
2023-05-14T12:02:57.137Z,149.90
2023-05-14T12:03:57.114Z,153.33
2023-05-14T12:04:57.100Z,155.45
2023-05-14T12:05:56.975Z,156.19
2023-05-14T12:06:56.990Z,155.36
2023-05-14T12:07:56.983Z,153.61
2023-05-14T12:08:57.007Z,152.10
2023-05-14T12:09:56.970Z,149.23
2023-05-14T12:10:56.934Z,154.79
2023-05-14T12:11:56.934Z,157.15
2023-05-14T12:12:57.753Z,150.71
2023-05-14T12:13:56.916Z,153.33
2023-05-14T12:14:56.951Z,153.56
2023-05-14T12:15:57.027Z,152.21
2023-05-14T12:16:56.975Z,152.88
2023-05-14T12:17:57.301Z,154.74
2023-05-14T12:18:57.136Z,155.54
2023-05-14T12:19:57.196Z,156.46
2023-05-14T12:20:57.217Z,158.13
2023-05-14T12:21:57.292Z,157.27
2023-05-14T12:22:57.325Z,158.04
2023-05-14T12:23:57.415Z,157.50
2023-05-14T12:24:57.473Z,159.41
2023-05-14T12:25:57.514Z,159.03
2023-05-14T12:26:57.603Z,157.63
2023-05-14T12:27:57.630Z,158.19
2023-05-14T12:28:57.726Z,158.92